Terminal Aerodrome Forecast
Issued by NWS

Home | Current Version | Previous Version | Text Only | Print | Product List | Glossary On
Versions: 1 2 3 4 5 6 7 8 9 10 11 12 13 14 15 16 17 18 19 20 21 22 23 24 25 26 27
000
FTUS43 KDLH 191300 AAA
TAFBRD
TAF AMD
KBRD 191336Z 1914/2012 15005KT P6SM VCSH OVC012
      TEMPO 1914/1916 4SM -SN OVC012
     FM191800 17006KT P6SM VCSH OVC015
     FM200200 17003KT P6SM OVC005=

USA.gov is the U.S. government's official web portal to all federal, state and local government web resources and services.